createdAt,value
2022-07-28T00:01:57.542Z,98212.22
2022-07-28T00:05:13.463Z,98211.06
2022-07-28T00:08:23.337Z,98201.09
2022-07-28T00:11:28.963Z,98204.25
2022-07-28T00:14:34.750Z,98206.22
2022-07-28T00:17:44.586Z,98205.63
2022-07-28T00:20:52.768Z,98213.00
2022-07-28T00:24:04.215Z,98210.25
2022-07-28T00:27:14.035Z,98210.63
2022-07-28T00:30:23.101Z,98206.66
2022-07-28T00:33:28.756Z,98204.78
2022-07-28T00:36:37.216Z,98202.19
2022-07-28T00:39:44.393Z,98203.00
2022-07-28T00:42:50.024Z,98207.13
2022-07-28T00:45:58.014Z,98193.28
2022-07-28T00:49:24.977Z,98195.28
2022-07-28T00:52:34.458Z,98191.06
2022-07-28T00:56:03.678Z,98190.66
2022-07-28T00:59:08.951Z,98189.91
2022-07-28T01:02:14.809Z,98191.25
2022-07-28T01:05:43.874Z,98187.09
2022-07-28T01:09:05.891Z,98188.13
2022-07-28T01:12:28.743Z,98192.75
2022-07-28T01:15:51.947Z,98217.13
2022-07-28T01:19:12.643Z,98208.88
2022-07-28T01:22:26.685Z,98209.75
2022-07-28T01:25:50.953Z,98208.69
2022-07-28T01:29:20.556Z,98200.59
2022-07-28T01:32:35.503Z,98212.84
2022-07-28T01:35:50.752Z,98211.00
2022-07-28T01:38:58.014Z,98207.25
2022-07-28T01:42:09.731Z,98212.28
2022-07-28T01:45:19.682Z,98207.19
2022-07-28T01:48:38.692Z,98204.69
2022-07-28T01:51:47.510Z,98207.47
2022-07-28T01:54:56.109Z,98210.56
2022-07-28T01:58:06.685Z,98210.53
2022-07-28T02:01:17.805Z,98211.63
2022-07-28T02:04:39.208Z,98210.81
2022-07-28T02:07:49.400Z,98209.38
2022-07-28T02:11:20.921Z,98213.19
2022-07-28T02:14:30.536Z,98209.88
2022-07-28T02:17:45.188Z,98207.63
2022-07-28T02:20:54.432Z,98209.78
2022-07-28T02:24:03.328Z,98208.81
2022-07-28T02:27:22.517Z,98209.28
2022-07-28T02:30:38.791Z,98209.38
2022-07-28T02:33:59.641Z,98218.44
2022-07-28T02:37:39.159Z,98214.09
2022-07-28T02:40:49.470Z,98215.59
2022-07-28T02:44:17.456Z,98221.41
2022-07-28T02:47:37.671Z,98225.31
2022-07-28T02:50:50.224Z,98236.50
2022-07-28T02:54:01.288Z,98240.91
2022-07-28T02:57:10.848Z,98241.09
2022-07-28T03:00:18.569Z,98248.97
2022-07-28T03:03:27.481Z,98259.16
2022-07-28T03:06:33.331Z,98261.47
2022-07-28T03:09:46.702Z,98262.06
2022-07-28T03:12:52.658Z,98267.66
2022-07-28T03:15:58.220Z,98264.56
2022-07-28T03:19:03.873Z,98276.53
2022-07-28T03:22:11.917Z,98281.50
2022-07-28T03:25:29.514Z,98275.53
2022-07-28T03:28:39.628Z,98274.63
2022-07-28T03:31:50.142Z,98280.25
2022-07-28T03:34:56.952Z,98278.13
2022-07-28T03:38:14.360Z,98281.41
2022-07-28T03:41:29.904Z,98285.41
2022-07-28T03:44:38.555Z,98289.16
2022-07-28T03:47:53.988Z,98286.88
2022-07-28T03:51:02.106Z,98285.84
2022-07-28T03:54:08.053Z,98282.38
2022-07-28T03:57:16.284Z,98295.78
2022-07-28T04:00:23.535Z,98301.88
2022-07-28T04:03:43.037Z,98296.72
2022-07-28T04:06:50.074Z,98304.19
2022-07-28T04:09:55.818Z,98288.41
2022-07-28T04:13:04.140Z,98296.09
2022-07-28T04:16:10.237Z,98290.34
2022-07-28T04:19:16.461Z,98293.63
2022-07-28T04:22:22.837Z,98303.09
2022-07-28T04:25:30.853Z,98289.78
2022-07-28T04:28:39.070Z,98295.84
2022-07-28T04:31:44.927Z,98295.03
2022-07-28T04:34:50.714Z,98290.47
2022-07-28T04:37:58.843Z,98290.72
2022-07-28T04:41:04.389Z,98287.81
2022-07-28T04:44:13.858Z,98293.13
2022-07-28T04:47:19.796Z,98297.66
2022-07-28T04:50:25.531Z,98295.63
2022-07-28T04:53:36.278Z,98303.03
2022-07-28T04:56:42.400Z,98305.16
2022-07-28T04:59:54.131Z,98306.63
2022-07-28T05:03:02.864Z,98304.13
2022-07-28T05:06:08.796Z,98300.94
2022-07-28T05:09:14.412Z,98307.22
2022-07-28T05:12:19.990Z,98301.06
2022-07-28T05:15:28.461Z,98303.81
2022-07-28T05:18:34.098Z,98298.97
2022-07-28T05:21:40.032Z,98307.25
2022-07-28T05:24:45.837Z,98307.22
2022-07-28T05:27:53.429Z,98325.31
2022-07-28T05:31:01.636Z,98320.47
2022-07-28T05:34:07.259Z,98313.22
2022-07-28T05:37:12.889Z,98314.53
2022-07-28T05:40:22.035Z,98319.28
2022-07-28T05:43:28.305Z,98313.25
2022-07-28T05:46:36.513Z,98331.94
2022-07-28T05:49:42.135Z,98333.16
2022-07-28T05:52:48.753Z,98338.97
2022-07-28T05:56:00.237Z,98336.84
2022-07-28T05:59:10.332Z,98334.53
2022-07-28T06:02:18.663Z,98338.16
2022-07-28T06:05:26.538Z,98337.88
2022-07-28T06:08:32.230Z,98344.59
2022-07-28T06:11:38.463Z,98348.00
2022-07-28T06:14:44.291Z,98353.72
2022-07-28T06:17:55.613Z,98354.44
2022-07-28T06:21:04.448Z,98359.97
2022-07-28T06:24:11.078Z,98350.13
2022-07-28T06:27:16.932Z,98353.78
2022-07-28T06:30:24.283Z,98354.22
2022-07-28T06:33:32.367Z,98352.47
2022-07-28T06:36:38.986Z,98349.59
2022-07-28T06:39:48.421Z,98348.78
2022-07-28T06:42:55.236Z,98351.84
2022-07-28T06:46:00.777Z,98356.47
2022-07-28T06:49:23.289Z,98348.28
2022-07-28T06:52:29.847Z,98343.34
2022-07-28T06:55:36.429Z,98342.06
2022-07-28T06:58:42.333Z,98343.97
2022-07-28T07:01:52.154Z,98348.31
2022-07-28T07:05:00.392Z,98343.41
2022-07-28T07:08:06.046Z,98341.38
2022-07-28T07:11:11.731Z,98340.88
2022-07-28T07:14:19.836Z,98340.94
2022-07-28T07:17:25.417Z,98348.28
2022-07-28T07:20:33.709Z,98339.25
2022-07-28T07:23:39.403Z,98333.56
2022-07-28T07:26:45.750Z,98333.06
2022-07-28T07:29:51.365Z,98336.31
2022-07-28T07:32:56.902Z,98325.06
2022-07-28T07:36:05.329Z,98329.16
2022-07-28T07:39:11.733Z,98332.47
2022-07-28T07:42:19.649Z,98327.31
2022-07-28T07:45:31.235Z,98336.03
2022-07-28T07:48:38.873Z,98336.03
2022-07-28T07:51:47.615Z,98339.00
2022-07-28T07:54:55.293Z,98334.09
2022-07-28T07:58:01.126Z,98338.56
2022-07-28T08:01:15.784Z,98338.34
2022-07-28T08:04:25.185Z,98343.13
2022-07-28T08:07:37.880Z,98346.34
2022-07-28T08:10:43.760Z,98348.06
2022-07-28T08:13:54.591Z,98348.19
2022-07-28T08:17:00.593Z,98345.81
2022-07-28T08:20:12.747Z,98342.09
2022-07-28T08:23:30.715Z,98350.69
2022-07-28T08:26:36.478Z,98340.63
2022-07-28T08:29:42.243Z,98343.25
2022-07-28T08:32:56.843Z,98337.81
2022-07-28T08:36:03.276Z,98332.63
2022-07-28T08:39:11.627Z,98336.03
2022-07-28T08:42:31.650Z,98334.13
2022-07-28T08:45:40.816Z,98335.03
2022-07-28T08:48:50.266Z,98329.53
2022-07-28T08:52:02.563Z,98325.28
2022-07-28T08:55:19.147Z,98330.69
2022-07-28T08:58:26.015Z,98330.78
2022-07-28T09:01:39.043Z,98321.66
2022-07-28T09:04:46.526Z,98323.50
2022-07-28T09:07:55.915Z,98318.44
2022-07-28T09:11:06.428Z,98309.44
2022-07-28T09:14:15.677Z,98319.91
2022-07-28T09:17:27.029Z,98320.09
2022-07-28T09:20:34.757Z,98307.28
2022-07-28T09:23:48.831Z,98317.44
2022-07-28T09:27:09.714Z,98314.53
2022-07-28T09:30:16.215Z,98304.25
2022-07-28T09:33:42.725Z,98303.47
2022-07-28T09:36:50.833Z,98324.38
2022-07-28T09:39:59.627Z,98322.53
2022-07-28T09:43:13.475Z,98322.69
2022-07-28T09:46:24.547Z,98325.44
2022-07-28T09:49:45.363Z,98319.00
2022-07-28T09:52:50.969Z,98312.97
2022-07-28T09:56:00.571Z,98310.84
2022-07-28T09:59:09.366Z,98316.75
2022-07-28T10:02:16.325Z,98320.81
2022-07-28T10:05:23.006Z,98304.22
2022-07-28T10:08:53.427Z,98302.00
2022-07-28T10:12:22.736Z,98311.13
2022-07-28T10:15:54.707Z,98305.13
2022-07-28T10:19:03.321Z,98299.34
2022-07-28T10:22:11.678Z,98288.59
2022-07-28T10:25:19.536Z,98283.44
2022-07-28T10:28:27.334Z,98303.41
2022-07-28T10:31:49.328Z,98283.41
2022-07-28T10:35:06.944Z,98286.75
2022-07-28T10:38:21.739Z,98285.38
2022-07-28T10:41:43.489Z,98292.31
2022-07-28T10:44:51.040Z,98285.53
2022-07-28T10:48:04.318Z,98282.78
2022-07-28T10:51:12.835Z,98282.84
2022-07-28T10:54:30.528Z,98283.78
2022-07-28T10:57:46.703Z,98275.25
2022-07-28T11:01:26.705Z,98274.56
2022-07-28T11:05:05.392Z,98269.69
2022-07-28T11:08:29.622Z,98269.44
2022-07-28T11:11:50.244Z,98275.44
2022-07-28T11:14:55.902Z,98275.50
2022-07-28T11:18:09.471Z,98272.13
2022-07-28T11:21:20.557Z,98266.44
2022-07-28T11:24:26.277Z,98268.22
2022-07-28T11:28:16.405Z,98273.50
2022-07-28T11:31:57.052Z,98256.13
2022-07-28T11:35:12.837Z,98259.94
2022-07-28T11:38:27.607Z,98256.31
2022-07-28T11:41:34.827Z,98265.41
2022-07-28T11:44:41.204Z,98263.94
2022-07-28T11:47:48.180Z,98267.16
2022-07-28T11:51:18.984Z,98260.91
2022-07-28T11:54:28.451Z,98262.72
2022-07-28T11:57:47.633Z,98252.78
2022-07-28T12:01:19.401Z,98251.25
2022-07-28T12:04:30.355Z,98249.06
2022-07-28T12:07:43.868Z,98241.09
2022-07-28T12:10:54.882Z,98235.59
2022-07-28T12:14:04.170Z,98232.28
2022-07-28T12:17:10.768Z,98236.66
2022-07-28T12:20:22.134Z,98240.19
2022-07-28T12:23:49.320Z,98233.97
2022-07-28T12:26:59.746Z,98241.72
2022-07-28T12:30:15.881Z,98230.44
2022-07-28T12:33:29.886Z,98227.44
2022-07-28T12:36:38.113Z,98229.31
2022-07-28T12:39:46.361Z,98226.34
2022-07-28T12:42:57.383Z,98219.09
2022-07-28T12:46:08.993Z,98214.69
2022-07-28T12:49:24.933Z,98228.16
2022-07-28T12:52:30.578Z,98225.97
2022-07-28T12:55:36.576Z,98226.19
2022-07-28T12:58:44.872Z,98222.88
2022-07-28T13:01:53.995Z,98218.88
2022-07-28T13:04:59.631Z,98216.19
2022-07-28T13:08:16.255Z,98216.50
2022-07-28T13:11:46.154Z,98216.34
2022-07-28T13:14:58.314Z,98212.78
2022-07-28T13:18:05.234Z,98218.09
2022-07-28T13:21:11.976Z,98215.50
2022-07-28T13:24:20.067Z,98216.97
2022-07-28T13:27:25.858Z,98208.84
2022-07-28T13:30:33.963Z,98211.28
2022-07-28T13:33:39.531Z,98211.41
2022-07-28T13:36:50.596Z,98210.16
2022-07-28T13:39:56.768Z,98208.13
2022-07-28T13:43:11.463Z,98202.22
2022-07-28T13:46:21.144Z,98199.97
2022-07-28T13:49:27.668Z,98200.06
2022-07-28T13:52:35.257Z,98199.56
2022-07-28T13:55:43.002Z,98199.06
2022-07-28T13:58:48.554Z,98195.59
2022-07-28T14:02:01.236Z,98197.28
2022-07-28T14:05:09.513Z,98199.72
2022-07-28T14:08:19.575Z,98192.06
2022-07-28T14:11:25.841Z,98189.81
2022-07-28T14:14:36.610Z,98184.19
2022-07-28T14:17:46.325Z,98180.41
2022-07-28T14:20:53.186Z,98186.25
2022-07-28T14:23:58.873Z,98172.50
2022-07-28T14:27:08.639Z,98173.25
2022-07-28T14:30:26.082Z,98177.34
2022-07-28T14:33:34.230Z,98167.41
2022-07-28T14:36:39.888Z,98182.28
2022-07-28T14:39:53.370Z,98172.81
2022-07-28T14:42:59.051Z,98172.50
2022-07-28T14:46:16.252Z,98173.84
2022-07-28T14:49:26.281Z,98172.63
2022-07-28T14:52:33.014Z,98163.72
2022-07-28T14:55:38.820Z,98162.50
2022-07-28T14:58:45.103Z,98161.06
2022-07-28T15:01:53.484Z,98163.22
2022-07-28T15:05:01.786Z,98162.41
2022-07-28T15:08:07.940Z,98169.00
2022-07-28T15:11:13.517Z,98162.97
2022-07-28T15:14:27.906Z,98157.56
2022-07-28T15:17:36.008Z,98159.97
2022-07-28T15:20:44.840Z,98158.63
2022-07-28T15:23:50.748Z,98150.75
2022-07-28T15:26:58.556Z,98146.34
2022-07-28T15:30:04.232Z,98145.28
2022-07-28T15:33:13.830Z,98148.22
2022-07-28T15:36:27.403Z,98135.09
2022-07-28T15:39:39.591Z,98135.84
2022-07-28T15:42:48.383Z,98132.59
2022-07-28T15:45:59.431Z,98131.69
2022-07-28T15:49:09.570Z,98134.69
2022-07-28T15:52:19.977Z,98132.56
2022-07-28T15:55:25.737Z,98142.03
2022-07-28T15:58:31.348Z,98132.50
2022-07-28T16:01:39.820Z,98127.94
2022-07-28T16:04:53.973Z,98130.09
2022-07-28T16:08:02.583Z,98132.00
2022-07-28T16:11:08.132Z,98131.31
2022-07-28T16:14:13.912Z,98131.53
2022-07-28T16:17:19.711Z,98130.41
2022-07-28T16:20:25.906Z,98137.78
2022-07-28T16:23:34.042Z,98131.25
2022-07-28T16:26:39.588Z,98133.97
2022-07-28T16:29:45.831Z,98119.81
2022-07-28T16:32:59.124Z,98130.69
2022-07-28T16:36:05.477Z,98131.75
2022-07-28T16:39:15.562Z,98133.44
2022-07-28T16:42:24.303Z,98131.81
2022-07-28T16:45:30.961Z,98126.34
2022-07-28T16:48:39.648Z,98128.78
2022-07-28T16:51:47.417Z,98122.28
2022-07-28T16:54:56.302Z,98125.28
2022-07-28T16:58:01.999Z,98126.13
2022-07-28T17:01:08.958Z,98134.06
2022-07-28T17:04:15.169Z,98129.41
2022-07-28T17:07:29.202Z,98129.66
2022-07-28T17:10:42.598Z,98137.31
2022-07-28T17:13:48.106Z,98132.44
2022-07-28T17:16:53.673Z,98131.31
2022-07-28T17:19:59.401Z,98128.63
2022-07-28T17:23:08.906Z,98140.06
2022-07-28T17:27:32.390Z,98132.47
2022-07-28T17:29:48.319Z,98147.47
2022-07-28T17:33:06.072Z,98142.88
2022-07-28T17:36:13.793Z,98145.56
2022-07-28T17:39:19.564Z,98138.47
2022-07-28T17:42:31.440Z,98146.91
2022-07-28T17:45:46.440Z,98140.88
2022-07-28T17:48:52.228Z,98143.06
2022-07-28T17:51:57.858Z,98155.31
2022-07-28T17:55:16.672Z,98154.75
2022-07-28T17:58:32.396Z,98157.19
2022-07-28T18:01:43.588Z,98158.47
2022-07-28T18:04:50.896Z,98156.50
2022-07-28T18:07:59.308Z,98155.69
2022-07-28T18:11:06.802Z,98167.00
2022-07-28T18:14:15.649Z,98163.16
2022-07-28T18:17:23.622Z,98169.41
2022-07-28T18:20:29.504Z,98164.63
2022-07-28T18:23:35.745Z,98166.75
2022-07-28T18:26:41.466Z,98169.94
2022-07-28T18:29:49.680Z,98166.66
2022-07-28T18:32:56.232Z,98176.31
2022-07-28T18:36:04.898Z,98172.59
2022-07-28T18:41:58.192Z,98175.66
2022-07-28T18:45:05.175Z,98176.91
2022-07-28T18:48:11.646Z,98186.00
2022-07-28T18:51:19.840Z,98185.69
2022-07-28T18:54:27.640Z,98193.47
2022-07-28T18:57:36.267Z,98188.81
2022-07-28T19:00:42.425Z,98198.41
2022-07-28T19:03:50.627Z,98201.63
2022-07-28T19:06:59.924Z,98201.13
2022-07-28T19:10:14.213Z,98206.41
2022-07-28T19:13:28.283Z,98211.47
2022-07-28T19:16:38.532Z,98217.41
2022-07-28T19:19:44.327Z,98213.31
2022-07-28T19:23:03.227Z,98210.72
2022-07-28T19:26:10.856Z,98216.56
2022-07-28T19:29:25.175Z,98215.44
2022-07-28T19:32:30.737Z,98215.38
2022-07-28T19:35:39.227Z,98220.22
2022-07-28T19:38:46.079Z,98223.75
2022-07-28T19:41:51.794Z,98227.03
2022-07-28T19:45:09.751Z,98233.09
2022-07-28T19:48:24.698Z,98236.38
2022-07-28T19:51:30.846Z,98234.94
2022-07-28T19:54:36.512Z,98235.88
2022-07-28T19:57:45.427Z,98233.59
2022-07-28T20:00:54.165Z,98233.22
2022-07-28T20:04:05.304Z,98237.56
2022-07-28T20:07:13.891Z,98233.47
2022-07-28T20:10:19.526Z,98236.16
2022-07-28T20:13:38.473Z,98239.19
2022-07-28T20:16:46.844Z,98241.16
2022-07-28T20:20:17.741Z,98245.97
2022-07-28T20:23:30.046Z,98249.06
2022-07-28T20:26:35.732Z,98255.44
2022-07-28T20:29:45.058Z,98246.28
2022-07-28T20:32:53.428Z,98245.03
2022-07-28T20:36:01.876Z,98236.91
2022-07-28T20:39:34.426Z,98239.72
2022-07-28T20:42:40.580Z,98234.53
2022-07-28T20:45:52.830Z,98233.72
2022-07-28T20:49:01.384Z,98232.84
2022-07-28T20:52:10.254Z,98233.78
2022-07-28T20:58:35.168Z,98234.84
2022-07-28T21:01:49.341Z,98235.22
2022-07-28T21:05:01.227Z,98234.03
2022-07-28T21:08:18.773Z,98229.00
2022-07-28T21:11:24.335Z,98233.63
2022-07-28T21:14:32.792Z,98243.13
2022-07-28T21:17:38.604Z,98239.16
2022-07-28T21:20:44.633Z,98238.53
2022-07-28T21:23:52.269Z,98240.78
2022-07-28T21:26:58.131Z,98246.75
2022-07-28T21:30:10.974Z,98241.69
2022-07-28T21:33:23.442Z,98243.56
2022-07-28T21:36:32.319Z,98240.38
2022-07-28T21:39:38.308Z,98244.59
2022-07-28T21:42:43.968Z,98244.97
2022-07-28T21:45:52.590Z,98240.63
2022-07-28T21:49:10.183Z,98241.09
2022-07-28T21:52:15.892Z,98241.19
2022-07-28T21:55:21.622Z,98248.47
2022-07-28T21:58:27.845Z,98243.41
2022-07-28T22:01:36.118Z,98238.91
2022-07-28T22:04:41.757Z,98240.53
2022-07-28T22:07:48.478Z,98240.53
2022-07-28T22:10:54.136Z,98245.22
2022-07-28T22:13:59.753Z,98247.38
2022-07-28T22:17:11.524Z,98240.19
2022-07-28T22:20:17.543Z,98250.03
2022-07-28T22:23:28.971Z,98252.41
2022-07-28T22:26:38.025Z,98244.91
2022-07-28T22:29:51.325Z,98249.56
2022-07-28T22:33:00.057Z,98252.28
2022-07-28T22:36:08.776Z,98257.91
2022-07-28T22:39:18.723Z,98250.84
2022-07-28T22:42:24.322Z,98243.44
2022-07-28T22:45:50.028Z,98254.00
2022-07-28T22:48:58.515Z,98250.22
2022-07-28T22:52:04.373Z,98247.22
2022-07-28T22:58:33.406Z,98247.22
2022-07-28T23:01:40.067Z,98251.13
2022-07-28T23:04:58.722Z,98246.78
2022-07-28T23:08:04.414Z,98248.81
2022-07-28T23:11:20.891Z,98258.63
2022-07-28T23:14:28.645Z,98259.69
2022-07-28T23:17:39.686Z,98259.28
2022-07-28T23:20:49.005Z,98253.91
2022-07-28T23:23:54.868Z,98264.94
2022-07-28T23:27:00.570Z,98257.28
2022-07-28T23:30:08.565Z,98260.22
2022-07-28T23:33:55.854Z,98262.00
2022-07-28T23:36:51.290Z,98268.34
2022-07-28T23:40:05.176Z,98268.75
2022-07-28T23:43:10.746Z,98272.09
2022-07-28T23:46:16.370Z,98270.47
2022-07-28T23:49:22.360Z,98269.66
2022-07-28T23:52:30.609Z,98274.97
2022-07-28T23:55:36.231Z,98265.91
2022-07-28T23:58:43.942Z,98273.25
